sensor_id;sensor_type;location;lat;lon;timestamp;pressure;altitude;pressure_sealevel;temperature;humidity
64967;BME280;51710;38.732;-121.358;2023-02-01T00:00:53;101609.19;;;13.88;38.63
64967;BME280;51710;38.732;-121.358;2023-02-01T00:03:21;101610.22;;;13.87;38.83
64967;BME280;51710;38.732;-121.358;2023-02-01T00:05:58;101601.66;;;13.84;38.51
64967;BME280;51710;38.732;-121.358;2023-02-01T00:08:25;101605.03;;;13.86;39.00
64967;BME280;51710;38.732;-121.358;2023-02-01T00:11:02;101602.34;;;13.86;38.87
64967;BME280;51710;38.732;-121.358;2023-02-01T00:13:32;101600.63;;;13.85;38.99
64967;BME280;51710;38.732;-121.358;2023-02-01T00:18:34;101595.59;;;13.82;39.32
64967;BME280;51710;38.732;-121.358;2023-02-01T00:21:01;101597.91;;;13.77;39.26
64967;BME280;51710;38.732;-121.358;2023-02-01T00:23:27;101604.72;;;13.71;39.37
64967;BME280;51710;38.732;-121.358;2023-02-01T00:25:54;101601.69;;;13.66;39.32
64967;BME280;51710;38.732;-121.358;2023-02-01T00:28:20;101595.09;;;13.61;39.30
64967;BME280;51710;38.732;-121.358;2023-02-01T00:30:46;101600.09;;;13.55;39.64
64967;BME280;51710;38.732;-121.358;2023-02-01T00:33:13;101600.41;;;13.52;39.62
64967;BME280;51710;38.732;-121.358;2023-02-01T00:35:39;101600.31;;;13.44;39.31
64967;BME280;51710;38.732;-121.358;2023-02-01T00:38:05;101597.44;;;13.38;39.42
64967;BME280;51710;38.732;-121.358;2023-02-01T00:40:32;101603.53;;;13.30;39.44
64967;BME280;51710;38.732;-121.358;2023-02-01T00:42:58;101602.34;;;13.25;39.58
64967;BME280;51710;38.732;-121.358;2023-02-01T00:45:24;101608.28;;;13.19;39.75
64967;BME280;51710;38.732;-121.358;2023-02-01T00:47:51;101614.22;;;13.13;39.74
64967;BME280;51710;38.732;-121.358;2023-02-01T00:50:17;101608.66;;;13.06;39.63
64967;BME280;51710;38.732;-121.358;2023-02-01T00:52:43;101622.59;;;13.00;39.70
64967;BME280;51710;38.732;-121.358;2023-02-01T00:55:10;101620.53;;;12.94;39.38
64967;BME280;51710;38.732;-121.358;2023-02-01T00:57:36;101625.31;;;12.91;39.92
64967;BME280;51710;38.732;-121.358;2023-02-01T01:00:03;101623.28;;;12.85;40.36
64967;BME280;51710;38.732;-121.358;2023-02-01T01:02:29;101625.69;;;12.78;39.86
64967;BME280;51710;38.732;-121.358;2023-02-01T01:04:56;101632.22;;;12.66;39.92
64967;BME280;51710;38.732;-121.358;2023-02-01T01:07:22;101637.63;;;12.57;40.21
64967;BME280;51710;38.732;-121.358;2023-02-01T01:09:48;101638.66;;;12.46;40.14
64967;BME280;51710;38.732;-121.358;2023-02-01T01:12:15;101642.88;;;12.39;40.30
64967;BME280;51710;38.732;-121.358;2023-02-01T01:14:41;101632.06;;;12.31;40.27
64967;BME280;51710;38.732;-121.358;2023-02-01T01:17:07;101641.09;;;12.20;40.56
64967;BME280;51710;38.732;-121.358;2023-02-01T01:19:34;101633.84;;;12.13;40.54
64967;BME280;51710;38.732;-121.358;2023-02-01T01:22:00;101645.38;;;12.04;40.71
64967;BME280;51710;38.732;-121.358;2023-02-01T01:24:26;101654.38;;;11.93;40.57
64967;BME280;51710;38.732;-121.358;2023-02-01T01:26:53;101654.28;;;11.85;40.79
64967;BME280;51710;38.732;-121.358;2023-02-01T01:29:19;101655.81;;;11.78;40.74
64967;BME280;51710;38.732;-121.358;2023-02-01T01:31:45;101661.84;;;11.71;41.17
64967;BME280;51710;38.732;-121.358;2023-02-01T01:34:14;101659.75;;;11.65;41.17
64967;BME280;51710;38.732;-121.358;2023-02-01T01:36:40;101667.28;;;11.60;41.68
64967;BME280;51710;38.732;-121.358;2023-02-01T01:39:07;101667.88;;;11.54;41.32
64967;BME280;51710;38.732;-121.358;2023-02-01T01:41:33;101668.41;;;11.48;41.57
64967;BME280;51710;38.732;-121.358;2023-02-01T01:44:05;101667.28;;;11.41;41.59
64967;BME280;51710;38.732;-121.358;2023-02-01T01:46:37;101671.50;;;11.33;42.03
64967;BME280;51710;38.732;-121.358;2023-02-01T01:51:46;101685.09;;;11.21;42.23
64967;BME280;51710;38.732;-121.358;2023-02-01T01:54:27;101682.13;;;11.14;42.40
64967;BME280;51710;38.732;-121.358;2023-02-01T01:57:06;101686.31;;;11.07;42.18
64967;BME280;51710;38.732;-121.358;2023-02-01T01:59:36;101687.13;;;10.98;42.16
64967;BME280;51710;38.732;-121.358;2023-02-01T02:02:04;101686.13;;;10.90;42.44
64967;BME280;51710;38.732;-121.358;2023-02-01T02:04:32;101694.97;;;10.81;42.73
64967;BME280;51710;38.732;-121.358;2023-02-01T02:07:21;101690.28;;;10.73;42.82
64967;BME280;51710;38.732;-121.358;2023-02-01T02:09:49;101693.63;;;10.66;43.25
64967;BME280;51710;38.732;-121.358;2023-02-01T02:12:15;101687.00;;;10.60;43.93
64967;BME280;51710;38.732;-121.358;2023-02-01T02:14:42;101695.53;;;10.54;44.09
64967;BME280;51710;38.732;-121.358;2023-02-01T02:29:37;101703.94;;;10.29;45.17
64967;BME280;51710;38.732;-121.358;2023-02-01T02:39:54;101703.75;;;10.00;45.65
64967;BME280;51710;38.732;-121.358;2023-02-01T02:42:29;101706.19;;;9.92;45.90
64967;BME280;51710;38.732;-121.358;2023-02-01T02:48:38;101712.22;;;9.74;46.04
64967;BME280;51710;38.732;-121.358;2023-02-01T02:51:23;101714.66;;;9.66;46.35
64967;BME280;51710;38.732;-121.358;2023-02-01T02:54:13;101709.25;;;9.56;46.71
64967;BME280;51710;38.732;-121.358;2023-02-01T02:57:02;101724.03;;;9.49;46.62
64967;BME280;51710;38.732;-121.358;2023-02-01T02:59:49;101722.50;;;9.36;46.64
64967;BME280;51710;38.732;-121.358;2023-02-01T03:02:35;101720.56;;;9.27;47.09
64967;BME280;51710;38.732;-121.358;2023-02-01T03:05:24;101734.94;;;9.24;47.37
64967;BME280;51710;38.732;-121.358;2023-02-01T03:08:04;101729.28;;;9.18;47.55
64967;BME280;51710;38.732;-121.358;2023-02-01T03:11:08;101729.06;;;9.09;47.54
64967;BME280;51710;38.732;-121.358;2023-02-01T03:16:27;101738.50;;;9.02;47.69
64967;BME280;51710;38.732;-121.358;2023-02-01T03:21:57;101737.03;;;8.87;48.22
64967;BME280;51710;38.732;-121.358;2023-02-01T03:24:43;101742.38;;;8.76;48.28
64967;BME280;51710;38.732;-121.358;2023-02-01T03:27:35;101748.03;;;8.72;48.48
64967;BME280;51710;38.732;-121.358;2023-02-01T03:32:50;101742.72;;;8.61;49.03
64967;BME280;51710;38.732;-121.358;2023-02-01T03:44:21;101748.38;;;8.56;49.40
64967;BME280;51710;38.732;-121.358;2023-02-01T03:49:40;101757.06;;;8.58;49.52
64967;BME280;51710;38.732;-121.358;2023-02-01T03:52:15;101755.53;;;8.56;49.42
64967;BME280;51710;38.732;-121.358;2023-02-01T03:54:43;101766.47;;;8.51;49.99
64967;BME280;51710;38.732;-121.358;2023-02-01T03:57:14;101763.34;;;8.46;50.22
64967;BME280;51710;38.732;-121.358;2023-02-01T03:59:45;101764.53;;;8.42;50.31
64967;BME280;51710;38.732;-121.358;2023-02-01T04:02:14;101766.34;;;8.42;50.08
64967;BME280;51710;38.732;-121.358;2023-02-01T04:04:41;101765.50;;;8.41;50.38
64967;BME280;51710;38.732;-121.358;2023-02-01T04:07:07;101762.84;;;8.41;50.72
64967;BME280;51710;38.732;-121.358;2023-02-01T04:09:33;101770.81;;;8.41;50.30
64967;BME280;51710;38.732;-121.358;2023-02-01T04:12:00;101775.25;;;8.41;50.58
64967;BME280;51710;38.732;-121.358;2023-02-01T04:14:26;101778.03;;;8.39;50.39
64967;BME280;51710;38.732;-121.358;2023-02-01T04:16:52;101771.03;;;8.38;50.65
64967;BME280;51710;38.732;-121.358;2023-02-01T04:19:19;101777.41;;;8.36;51.07
64967;BME280;51710;38.732;-121.358;2023-02-01T04:21:46;101775.75;;;8.35;51.18
64967;BME280;51710;38.732;-121.358;2023-02-01T04:24:12;101771.50;;;8.32;50.99
64967;BME280;51710;38.732;-121.358;2023-02-01T04:26:38;101763.06;;;8.27;51.00
64967;BME280;51710;38.732;-121.358;2023-02-01T04:29:05;101768.59;;;8.24;51.45
64967;BME280;51710;38.732;-121.358;2023-02-01T04:31:34;101774.19;;;8.20;51.58
64967;BME280;51710;38.732;-121.358;2023-02-01T04:34:02;101767.47;;;8.16;51.42
64967;BME280;51710;38.732;-121.358;2023-02-01T04:36:28;101766.84;;;8.12;51.14
64967;BME280;51710;38.732;-121.358;2023-02-01T04:38:54;101775.97;;;8.08;51.75
64967;BME280;51710;38.732;-121.358;2023-02-01T04:41:21;101773.56;;;8.05;51.82
64967;BME280;51710;38.732;-121.358;2023-02-01T04:43:49;101775.72;;;8.00;51.92
64967;BME280;51710;38.732;-121.358;2023-02-01T04:46:16;101777.75;;;7.96;51.72
64967;BME280;51710;38.732;-121.358;2023-02-01T04:48:43;101775.31;;;7.93;51.94
64967;BME280;51710;38.732;-121.358;2023-02-01T04:51:10;101772.03;;;7.90;51.92
64967;BME280;51710;38.732;-121.358;2023-02-01T04:53:36;101779.25;;;7.88;52.38
64967;BME280;51710;38.732;-121.358;2023-02-01T04:56:03;101778.56;;;7.86;52.11
64967;BME280;51710;38.732;-121.358;2023-02-01T04:58:29;101777.81;;;7.84;52.55
64967;BME280;51710;38.732;-121.358;2023-02-01T05:00:56;101775.41;;;7.81;52.61
64967;BME280;51710;38.732;-121.358;2023-02-01T05:03:22;101781.78;;;7.78;52.21
64967;BME280;51710;38.732;-121.358;2023-02-01T05:05:48;101786.69;;;7.72;52.24
64967;BME280;51710;38.732;-121.358;2023-02-01T05:08:15;101777.38;;;7.66;53.07
64967;BME280;51710;38.732;-121.358;2023-02-01T05:10:41;101784.69;;;7.63;52.72
64967;BME280;51710;38.732;-121.358;2023-02-01T05:13:09;101780.34;;;7.62;53.19
64967;BME280;51710;38.732;-121.358;2023-02-01T05:15:54;101779.63;;;7.60;53.04
64967;BME280;51710;38.732;-121.358;2023-02-01T05:18:21;101772.75;;;7.57;53.07
64967;BME280;51710;38.732;-121.358;2023-02-01T05:20:47;101775.75;;;7.53;53.43
64967;BME280;51710;38.732;-121.358;2023-02-01T05:23:13;101771.50;;;7.50;53.36
64967;BME280;51710;38.732;-121.358;2023-02-01T05:25:40;101775.94;;;7.50;53.22
64967;BME280;51710;38.732;-121.358;2023-02-01T05:28:06;101774.38;;;7.47;53.37
64967;BME280;51710;38.732;-121.358;2023-02-01T05:30:32;101773.63;;;7.45;53.08
64967;BME280;51710;38.732;-121.358;2023-02-01T05:33:01;101778.31;;;7.42;53.13
64967;BME280;51710;38.732;-121.358;2023-02-01T05:35:28;101785.63;;;7.38;53.15
64967;BME280;51710;38.732;-121.358;2023-02-01T05:37:54;101790.19;;;7.36;53.39
64967;BME280;51710;38.732;-121.358;2023-02-01T05:40:21;101784.03;;;7.36;53.50
64967;BME280;51710;38.732;-121.358;2023-02-01T05:42:47;101794.13;;;7.31;53.36
64967;BME280;51710;38.732;-121.358;2023-02-01T05:45:14;101797.00;;;7.28;54.05
64967;BME280;51710;38.732;-121.358;2023-02-01T05:47:40;101796.38;;;7.24;53.62
64967;BME280;51710;38.732;-121.358;2023-02-01T05:50:07;101800.94;;;7.22;53.68
64967;BME280;51710;38.732;-121.358;2023-02-01T05:52:33;101791.41;;;7.20;53.77
64967;BME280;51710;38.732;-121.358;2023-02-01T05:55:00;101801.50;;;7.15;53.82
64967;BME280;51710;38.732;-121.358;2023-02-01T05:57:26;101802.13;;;7.06;53.88
64967;BME280;51710;38.732;-121.358;2023-02-01T05:59:53;101804.28;;;7.01;54.07
64967;BME280;51710;38.732;-121.358;2023-02-01T06:02:19;101800.97;;;6.97;54.71
64967;BME280;51710;38.732;-121.358;2023-02-01T06:04:46;101802.78;;;6.97;54.77
64967;BME280;51710;38.732;-121.358;2023-02-01T06:07:12;101799.16;;;6.98;54.51
64967;BME280;51710;38.732;-121.358;2023-02-01T06:09:38;101795.56;;;6.99;54.73
64967;BME280;51710;38.732;-121.358;2023-02-01T06:12:05;101802.44;;;7.01;55.01
64967;BME280;51710;38.732;-121.358;2023-02-01T06:14:31;101808.72;;;7.00;55.31
64967;BME280;51710;38.732;-121.358;2023-02-01T06:16:58;101809.75;;;6.98;54.91
64967;BME280;51710;38.732;-121.358;2023-02-01T06:19:24;101804.69;;;6.95;54.99
64967;BME280;51710;38.732;-121.358;2023-02-01T06:21:51;101822.47;;;6.93;55.33
64967;BME280;51710;38.732;-121.358;2023-02-01T06:24:17;101830.75;;;6.88;55.34
64967;BME280;51710;38.732;-121.358;2023-02-01T06:26:44;101825.44;;;6.75;55.08
64967;BME280;51710;38.732;-121.358;2023-02-01T06:29:10;101826.50;;;6.60;55.80
64967;BME280;51710;38.732;-121.358;2023-02-01T06:31:36;101837.03;;;6.35;56.43
64967;BME280;51710;38.732;-121.358;2023-02-01T06:34:03;101841.44;;;6.10;56.73
64967;BME280;51710;38.732;-121.358;2023-02-01T06:36:29;101842.63;;;5.92;56.44
64967;BME280;51710;38.732;-121.358;2023-02-01T06:38:56;101842.53;;;5.79;57.05
64967;BME280;51710;38.732;-121.358;2023-02-01T06:41:23;101860.88;;;5.68;57.16
64967;BME280;51710;38.732;-121.358;2023-02-01T06:43:49;101865.03;;;5.58;57.68
64967;BME280;51710;38.732;-121.358;2023-02-01T06:46:16;101869.41;;;5.45;58.10
64967;BME280;51710;38.732;-121.358;2023-02-01T06:48:45;101862.81;;;5.38;58.70
64967;BME280;51710;38.732;-121.358;2023-02-01T06:51:23;101858.50;;;5.37;58.89
64967;BME280;51710;38.732;-121.358;2023-02-01T06:53:50;101861.97;;;5.37;58.54
64967;BME280;51710;38.732;-121.358;2023-02-01T06:56:16;101867.91;;;5.41;58.66
64967;BME280;51710;38.732;-121.358;2023-02-01T06:58:44;101870.94;;;5.49;58.73
64967;BME280;51710;38.732;-121.358;2023-02-01T07:01:11;101874.94;;;5.54;58.62
64967;BME280;51710;38.732;-121.358;2023-02-01T07:03:38;101869.41;;;5.59;58.96
64967;BME280;51710;38.732;-121.358;2023-02-01T07:06:06;101871.63;;;5.65;59.07
64967;BME280;51710;38.732;-121.358;2023-02-01T07:08:34;101871.81;;;5.76;59.34
64967;BME280;51710;38.732;-121.358;2023-02-01T07:11:03;101862.63;;;5.82;59.11
64967;BME280;51710;38.732;-121.358;2023-02-01T07:13:31;101862.38;;;5.86;59.15
64967;BME280;51710;38.732;-121.358;2023-02-01T07:16:03;101855.94;;;5.90;59.25
64967;BME280;51710;38.732;-121.358;2023-02-01T07:18:31;101853.69;;;5.84;59.22
64967;BME280;51710;38.732;-121.358;2023-02-01T07:20:57;101856.63;;;5.65;59.55
64967;BME280;51710;38.732;-121.358;2023-02-01T07:23:24;101857.78;;;5.47;59.64
64967;BME280;51710;38.732;-121.358;2023-02-01T07:25:56;101857.53;;;5.38;60.39
64967;BME280;51710;38.732;-121.358;2023-02-01T07:28:24;101864.50;;;5.39;60.58
64967;BME280;51710;38.732;-121.358;2023-02-01T07:30:50;101856.97;;;5.47;60.43
64967;BME280;51710;38.732;-121.358;2023-02-01T07:33:21;101852.25;;;5.52;60.56
64967;BME280;51710;38.732;-121.358;2023-02-01T07:35:49;101854.66;;;5.55;61.05
64967;BME280;51710;38.732;-121.358;2023-02-01T07:38:16;101850.91;;;5.59;61.17
64967;BME280;51710;38.732;-121.358;2023-02-01T07:40:43;101853.34;;;5.62;60.68
64967;BME280;51710;38.732;-121.358;2023-02-01T07:43:10;101863.53;;;5.68;61.08
64967;BME280;51710;38.732;-121.358;2023-02-01T07:45:36;101854.44;;;5.72;61.30
64967;BME280;51710;38.732;-121.358;2023-02-01T07:48:04;101860.28;;;5.77;61.35
64967;BME280;51710;38.732;-121.358;2023-02-01T07:50:31;101855.75;;;5.79;61.15
64967;BME280;51710;38.732;-121.358;2023-02-01T07:53:01;101858.38;;;5.79;61.09
64967;BME280;51710;38.732;-121.358;2023-02-01T07:55:27;101860.94;;;5.81;61.30
64967;BME280;51710;38.732;-121.358;2023-02-01T07:57:58;101867.06;;;5.81;61.02
64967;BME280;51710;38.732;-121.358;2023-02-01T08:00:25;101861.78;;;5.81;61.58
64967;BME280;51710;38.732;-121.358;2023-02-01T08:03:10;101865.38;;;5.80;61.27
64967;BME280;51710;38.732;-121.358;2023-02-01T08:05:36;101867.28;;;5.78;61.89
64967;BME280;51710;38.732;-121.358;2023-02-01T08:08:03;101866.19;;;5.68;61.88
64967;BME280;51710;38.732;-121.358;2023-02-01T08:10:30;101866.97;;;5.56;62.43
64967;BME280;51710;38.732;-121.358;2023-02-01T08:12:59;101864.50;;;5.39;62.33
64967;BME280;51710;38.732;-121.358;2023-02-01T08:15:27;101860.75;;;5.29;62.64
64967;BME280;51710;38.732;-121.358;2023-02-01T08:17:53;101857.44;;;5.25;63.45
64967;BME280;51710;38.732;-121.358;2023-02-01T08:20:24;101851.16;;;5.28;63.11
64967;BME280;51710;38.732;-121.358;2023-02-01T08:22:51;101851.50;;;5.36;62.49
64967;BME280;51710;38.732;-121.358;2023-02-01T08:25:18;101853.78;;;5.42;63.24
64967;BME280;51710;38.732;-121.358;2023-02-01T08:27:45;101847.22;;;5.47;63.17
64967;BME280;51710;38.732;-121.358;2023-02-01T08:30:12;101847.72;;;5.54;63.06
64967;BME280;51710;38.732;-121.358;2023-02-01T08:32:39;101852.59;;;5.60;63.14
64967;BME280;51710;38.732;-121.358;2023-02-01T08:35:06;101847.03;;;5.64;63.12
64967;BME280;51710;38.732;-121.358;2023-02-01T08:37:32;101840.69;;;5.67;63.46
64967;BME280;51710;38.732;-121.358;2023-02-01T08:39:59;101843.97;;;5.70;63.11
64967;BME280;51710;38.732;-121.358;2023-02-01T08:42:26;101849.91;;;5.74;63.30
64967;BME280;51710;38.732;-121.358;2023-02-01T08:45:10;101849.69;;;5.77;63.33
64967;BME280;51710;38.732;-121.358;2023-02-01T08:47:36;101840.00;;;5.78;63.33
64967;BME280;51710;38.732;-121.358;2023-02-01T08:50:03;101844.25;;;5.80;63.40
64967;BME280;51710;38.732;-121.358;2023-02-01T08:52:30;101836.31;;;5.80;63.58
64967;BME280;51710;38.732;-121.358;2023-02-01T08:54:56;101838.97;;;5.80;63.15
64967;BME280;51710;38.732;-121.358;2023-02-01T08:57:23;101841.59;;;5.80;64.25
64967;BME280;51710;38.732;-121.358;2023-02-01T08:59:49;101843.28;;;5.81;63.91
64967;BME280;51710;38.732;-121.358;2023-02-01T09:02:17;101844.16;;;5.82;63.94
64967;BME280;51710;38.732;-121.358;2023-02-01T09:04:43;101844.84;;;5.71;63.86
64967;BME280;51710;38.732;-121.358;2023-02-01T09:07:10;101840.34;;;5.59;64.52
64967;BME280;51710;38.732;-121.358;2023-02-01T09:09:38;101838.81;;;5.55;64.64
64967;BME280;51710;38.732;-121.358;2023-02-01T09:12:05;101835.44;;;5.53;64.61
64967;BME280;51710;38.732;-121.358;2023-02-01T09:14:32;101834.59;;;5.52;64.56
64967;BME280;51710;38.732;-121.358;2023-02-01T09:16:58;101826.56;;;5.54;64.85
64967;BME280;51710;38.732;-121.358;2023-02-01T09:19:24;101825.50;;;5.56;64.95
64967;BME280;51710;38.732;-121.358;2023-02-01T09:21:50;101828.06;;;5.58;64.98
64967;BME280;51710;38.732;-121.358;2023-02-01T09:24:17;101819.19;;;5.59;64.86
64967;BME280;51710;38.732;-121.358;2023-02-01T09:26:43;101821.09;;;5.57;64.86
64967;BME280;51710;38.732;-121.358;2023-02-01T09:29:09;101827.22;;;5.57;64.88
64967;BME280;51710;38.732;-121.358;2023-02-01T09:31:36;101833.84;;;5.50;64.82
64967;BME280;51710;38.732;-121.358;2023-02-01T09:34:03;101836.88;;;5.44;64.80
64967;BME280;51710;38.732;-121.358;2023-02-01T09:36:30;101841.91;;;5.35;65.00
64967;BME280;51710;38.732;-121.358;2023-02-01T09:38:57;101845.88;;;5.28;65.16
64967;BME280;51710;38.732;-121.358;2023-02-01T09:41:39;101854.72;;;5.27;65.26
64967;BME280;51710;38.732;-121.358;2023-02-01T09:44:32;101841.50;;;5.27;65.50
64967;BME280;51710;38.732;-121.358;2023-02-01T09:47:02;101842.06;;;5.32;65.48
64967;BME280;51710;38.732;-121.358;2023-02-01T09:49:35;101843.56;;;5.36;65.70
64967;BME280;51710;38.732;-121.358;2023-02-01T09:52:06;101850.38;;;5.40;65.30
64967;BME280;51710;38.732;-121.358;2023-02-01T09:54:49;101847.53;;;5.43;65.44
64967;BME280;51710;38.732;-121.358;2023-02-01T09:57:31;101841.94;;;5.47;65.63
64967;BME280;51710;38.732;-121.358;2023-02-01T10:00:13;101849.81;;;5.49;65.37
64967;BME280;51710;38.732;-121.358;2023-02-01T10:02:42;101860.72;;;5.43;65.12
64967;BME280;51710;38.732;-121.358;2023-02-01T10:05:15;101864.50;;;5.39;65.41
64967;BME280;51710;38.732;-121.358;2023-02-01T10:07:57;101864.50;;;5.39;65.38
64967;BME280;51710;38.732;-121.358;2023-02-01T10:10:32;101866.22;;;5.40;65.39
64967;BME280;51710;38.732;-121.358;2023-02-01T10:16:09;101871.59;;;5.38;65.73
64967;BME280;51710;38.732;-121.358;2023-02-01T10:19:16;101873.38;;;5.38;66.07
64967;BME280;51710;38.732;-121.358;2023-02-01T10:27:02;101871.69;;;5.37;65.80
64967;BME280;51710;38.732;-121.358;2023-02-01T10:29:38;101874.34;;;5.37;66.14
64967;BME280;51710;38.732;-121.358;2023-02-01T10:32:18;101876.97;;;5.37;65.91
64967;BME280;51710;38.732;-121.358;2023-02-01T10:34:55;101874.41;;;5.35;66.18
64967;BME280;51710;38.732;-121.358;2023-02-01T10:37:30;101868.88;;;5.26;65.86
64967;BME280;51710;38.732;-121.358;2023-02-01T10:42:57;101874.72;;;5.03;66.11
64967;BME280;51710;38.732;-121.358;2023-02-01T10:45:27;101874.91;;;5.00;66.47
64967;BME280;51710;38.732;-121.358;2023-02-01T10:47:57;101878.41;;;5.00;66.45
64967;BME280;51710;38.732;-121.358;2023-02-01T10:50:37;101879.22;;;5.01;66.78
64967;BME280;51710;38.732;-121.358;2023-02-01T10:53:15;101874.59;;;5.04;66.75
64967;BME280;51710;38.732;-121.358;2023-02-01T10:55:49;101871.72;;;5.09;66.62
64967;BME280;51710;38.732;-121.358;2023-02-01T10:58:21;101876.78;;;5.12;67.00
64967;BME280;51710;38.732;-121.358;2023-02-01T11:01:08;101864.53;;;5.11;66.63
64967;BME280;51710;38.732;-121.358;2023-02-01T11:03:55;101857.34;;;5.13;66.83
64967;BME280;51710;38.732;-121.358;2023-02-01T11:06:29;101859.16;;;5.12;66.46
64967;BME280;51710;38.732;-121.358;2023-02-01T11:09:31;101852.06;;;5.13;66.78
64967;BME280;51710;38.732;-121.358;2023-02-01T11:11:58;101853.78;;;5.14;66.47
64967;BME280;51710;38.732;-121.358;2023-02-01T11:16:58;101850.19;;;5.15;66.51
64967;BME280;51710;38.732;-121.358;2023-02-01T11:19:28;101850.19;;;5.15;66.68
64967;BME280;51710;38.732;-121.358;2023-02-01T11:21:57;101856.44;;;5.14;66.59
64967;BME280;51710;38.732;-121.358;2023-02-01T11:24:35;101852.00;;;5.14;67.32
64967;BME280;51710;38.732;-121.358;2023-02-01T11:27:05;101849.38;;;5.14;66.93
64967;BME280;51710;38.732;-121.358;2023-02-01T11:29:44;101844.91;;;5.15;66.83
64967;BME280;51710;38.732;-121.358;2023-02-01T11:32:13;101841.34;;;5.16;67.01
64967;BME280;51710;38.732;-121.358;2023-02-01T11:34:49;101845.66;;;5.17;67.10
64967;BME280;51710;38.732;-121.358;2023-02-01T11:37:41;101840.50;;;5.15;67.30
64967;BME280;51710;38.732;-121.358;2023-02-01T11:43:01;101854.00;;;5.11;67.08
64967;BME280;51710;38.732;-121.358;2023-02-01T11:45:33;101850.50;;;5.10;67.17
64967;BME280;51710;38.732;-121.358;2023-02-01T11:48:14;101843.59;;;5.08;66.95
64967;BME280;51710;38.732;-121.358;2023-02-01T11:50:47;101841.91;;;5.07;67.19
64967;BME280;51710;38.732;-121.358;2023-02-01T11:56:02;101861.31;;;5.06;67.51
64967;BME280;51710;38.732;-121.358;2023-02-01T11:58:46;101856.88;;;5.06;67.24
64967;BME280;51710;38.732;-121.358;2023-02-01T12:10:05;101856.22;;;5.03;67.68
64967;BME280;51710;38.732;-121.358;2023-02-01T12:12:57;101864.25;;;5.01;67.47
64967;BME280;51710;38.732;-121.358;2023-02-01T12:18:14;101871.59;;;4.96;67.54
64967;BME280;51710;38.732;-121.358;2023-02-01T12:29:28;101865.47;;;4.96;67.56
64967;BME280;51710;38.732;-121.358;2023-02-01T12:40:45;101866.88;;;4.87;67.57
64967;BME280;51710;38.732;-121.358;2023-02-01T12:43:35;101867.91;;;4.85;67.93
64967;BME280;51710;38.732;-121.358;2023-02-01T12:51:33;101869.97;;;4.80;67.97
64967;BME280;51710;38.732;-121.358;2023-02-01T12:56:49;101872.97;;;4.74;68.01
64967;BME280;51710;38.732;-121.358;2023-02-01T12:59:40;101879.38;;;4.70;68.49
64967;BME280;51710;38.732;-121.358;2023-02-01T13:02:33;101875.97;;;4.68;68.48
64967;BME280;51710;38.732;-121.358;2023-02-01T13:08:24;101876.94;;;4.67;68.17
64967;BME280;51710;38.732;-121.358;2023-02-01T13:11:07;101871.66;;;4.67;68.52
64967;BME280;51710;38.732;-121.358;2023-02-01T13:16:40;101889.34;;;4.65;68.64
64967;BME280;51710;38.732;-121.358;2023-02-01T13:22:10;101896.88;;;4.56;68.21
64967;BME280;51710;38.732;-121.358;2023-02-01T13:24:52;101897.31;;;4.49;68.63
64967;BME280;51710;38.732;-121.358;2023-02-01T13:27:21;101896.31;;;4.36;68.90
64967;BME280;51710;38.732;-121.358;2023-02-01T13:30:19;101903.16;;;4.24;68.71
64967;BME280;51710;38.732;-121.358;2023-02-01T13:44:15;101900.28;;;3.98;69.75
64967;BME280;51710;38.732;-121.358;2023-02-01T13:46:45;101894.88;;;3.85;69.51
64967;BME280;51710;38.732;-121.358;2023-02-01T13:49:25;101895.31;;;3.78;69.68
64967;BME280;51710;38.732;-121.358;2023-02-01T13:51:55;101895.31;;;3.78;70.56
64967;BME280;51710;38.732;-121.358;2023-02-01T13:54:31;101901.16;;;3.83;70.33
64967;BME280;51710;38.732;-121.358;2023-02-01T13:56:59;101900.75;;;3.90;70.32
64967;BME280;51710;38.732;-121.358;2023-02-01T14:02:45;101915.88;;;4.02;70.18
64967;BME280;51710;38.732;-121.358;2023-02-01T14:10:57;101923.31;;;3.94;69.32
64967;BME280;51710;38.732;-121.358;2023-02-01T14:13:35;101917.47;;;3.74;69.95
64967;BME280;51710;38.732;-121.358;2023-02-01T14:21:32;101919.31;;;3.40;70.23
64967;BME280;51710;38.732;-121.358;2023-02-01T14:50:48;101962.16;;;2.42;72.89
64967;BME280;51710;38.732;-121.358;2023-02-01T14:53:26;101962.16;;;2.42;72.28
64967;BME280;51710;38.732;-121.358;2023-02-01T14:58:36;101974.78;;;2.52;73.31
64967;BME280;51710;38.732;-121.358;2023-02-01T15:09:18;101991.53;;;2.50;73.51
64967;BME280;51710;38.732;-121.358;2023-02-01T15:14:27;101991.69;;;2.47;73.25
64967;BME280;51710;38.732;-121.358;2023-02-01T15:16:54;101983.88;;;2.45;73.16
64967;BME280;51710;38.732;-121.358;2023-02-01T15:19:30;101985.28;;;2.52;73.87
64967;BME280;51710;38.732;-121.358;2023-02-01T15:21:58;101988.38;;;2.60;73.53
64967;BME280;51710;38.732;-121.358;2023-02-01T15:24:28;101982.84;;;2.66;73.32
64967;BME280;51710;38.732;-121.358;2023-02-01T15:26:56;101979.81;;;2.74;73.39
64967;BME280;51710;38.732;-121.358;2023-02-01T15:29:27;101983.09;;;2.79;73.64
64967;BME280;51710;38.732;-121.358;2023-02-01T15:31:58;101986.53;;;2.79;73.91
64967;BME280;51710;38.732;-121.358;2023-02-01T15:34:48;101975.91;;;2.82;73.53
64967;BME280;51710;38.732;-121.358;2023-02-01T15:37:15;101974.78;;;2.86;73.70
64967;BME280;51710;38.732;-121.358;2023-02-01T15:40:03;101973.63;;;2.92;74.15
64967;BME280;51710;38.732;-121.358;2023-02-01T15:42:29;101974.13;;;3.00;73.81
64967;BME280;51710;38.732;-121.358;2023-02-01T15:44:56;101973.78;;;3.06;73.78
64967;BME280;51710;38.732;-121.358;2023-02-01T15:47:30;101979.66;;;3.11;73.76